메인 페이지
METAR-TAF:

METAR-TAF

공항 :

테드 스티븐스 앵커리지 국제공항

앵커리지, 알래스카, 미국

위도: 61-10-28N, 경도: 149-59-46W, 고도: 44m

현재 날씨관측

예보는 36분 전, 06:53시(UTC)에 발표되었습니다.
4kt
온도 2°C
습도 80%
기압 1002 hPa
시정: 16.1km
고도 800ft 상공 구름 조금
고도 2500ft 상공 구름 보통
고도 11000ft 상공 흐림

METAR: PANC 210653Z 36004KT 10SM FEW008 SCT025 OVC110 02/M01 A2960 RMK AO2 SLP027 T00171011 VISNO N $

시각: 23:29 (07:29 UTC)

예보

예보는 1 시간 57분 전, 05:32시(UTC)에 발표되었습니다.
예보 대상 시간: 21일 06시부터 22일 12시까지 (UTC)
8kt
시정: 10km
고도 2500ft 상공 구름 보통
고도 6000ft 상공 흐림
시계 내 소나기
일시적
21일 06시부터 21일 10시까지 (UTC)
고도 2500ft 상공 구름 많음
22일 0100시부터 (UTC)
남남동15kt, 순간 최대 풍속 25kt
시정: 10km
고도 4000ft 상공 구름 보통
고도 7000ft 상공 구름 많음
22일 0700시부터 (UTC)
여러 방향의 바람 6kt
시정: 10km
고도 3000ft 상공 구름 보통
고도 5000ft 상공 흐림
시계 내 소나기

TAF: PANC 210532Z 2106/2212 36008KT P6SM VCSH SCT025 OVC060 TEMPO 2106/2110 BKN025 FM220100 16015G25KT P6SM SCT040 BKN070 FM220700 VRB06KT P6SM VCSH SCT030 OVC050

4,000개 이상의 공항 관측 자료 및 예보 (METAR 및 TAF 보고).

지도상에서 검색 가능한 기상관측소가 노란 점과 빨간 점으로 표시되어 있습니다.

기상관측소 명을 보려면 표시 위로 마우스를 이동하세요.

날씨 관측과 예보를 보려면 클릭하세요.

지도 변경 : 확대하려면 엑스 표시가 있는 녹색 버튼, 축소하려면 빼기 표시가 있는 녹색 버튼, 다음 페이지의 지도를 보려면 녹색 화살표를 클릭하세요.


METAR-TAF: